Startpagina
METAR-TAF:

METAR-TAF

Vliegvelden :

Maastricht Aachen Airport

Maastricht Aken, Nederland

breedte: 50-55N, lengte: 005-47E, hoogte: 114 m

Actueel weer

Dit bericht is 27 minuten geleden gemaakt, om 07:55 UTC
Wind 5 kt uit het oosten
Temperatuur -1°C
Vochtigheid 100%
Druk 1008 hPa
Zicht: 6000 m

METAR: EHBK 210755Z AUTO 10005KT 6000 NSC M01/M01 Q1008 BECMG CAVOK

Tijdstip: 09:22 (08:22 UTC)

Verwachting

Dit bericht is 3 uur en het 11 minuten geleden gemaakt, om 05:11 UTC
Verwachting geldig van 21 om 06 UTC tot 22 om 12 UTC
Wind 7 kt uit het oosten
Zicht: 6000 m
Wijzigt naar
van 21 om 06 UTC tot 21 om 09 UTC
Zicht 10 km of meer
geen wolken onder 1500 m en geen cumulonimbus
Wijzigt naar
van 21 om 18 UTC tot 21 om 21 UTC
Wind 10 kt uit het zuiden

TAF: EHBK 210511Z 2106/2212 09007KT 6000 NSC BECMG 2106/2109 CAVOK BECMG 2118/2121 17010KT

Waarnemingen en weersverwachtingen van meer dan 4000 vliegvelden (METAR en TAF).

De beschikbare stations zijn de gele en rode punten op de kaart.

Ga met uw muis naar het station om de naam te zien.

Klik dan om waarnemingen en weersverwachtingen te zien.

kaart wijzigen: klik op de groene knoppen met een zwart kruis om in te zoomen, op de groene knop met een streepje om uit te zoomen of op de groene pijlen voor aangrenzende kaarten.


METAR-TAF: